Stations météo

réclame
Mon MeteoGroup
Chateau Chinon, France (7270): Température de l'air & dewpoint: 20.09.2018 05:00:00 - 26.09.2018 05:00:00 (CEST)Chateau Chinon, France (7270): Vitesse du vent & gusts: 20.09.2018 05:00:00 - 26.09.2018 05:00:00 (CEST)Chateau Chinon, France (7270): Direction du vent: 20.09.2018 05:00:00 - 26.09.2018 05:00:00 (CEST)Chateau Chinon, France (7270): Quantités de précipitations: 20.09.2018 05:00:00 - 26.09.2018 05:00:00 (CEST)
Date & Time tt [°C] td [°C] ff [km/h] ff [knt] fx [km/h] fx [knt] dd rr [mm]
26.09.2018 05:00:00 - - - - - - - -
26.09.2018 04:00:00 7,8 0,5 9 5 29 16 ESE 0,0
26.09.2018 03:00:00 7,5 0,7 8 4 31 17 E 0,0
26.09.2018 02:00:00 8,1 1,2 8 4 24 13 E -
26.09.2018 01:00:00 8,5 1,2 4 2 26 14 E 0,0
26.09.2018 00:00:00 9,4 1,8 8 4 29 16 E 0,0
25.09.2018 23:00:00 9,9 1,8 8 4 22 12 E 0,0
25.09.2018 22:00:00 9,3 1,7 4 2 26 14 E 0,0
25.09.2018 21:00:00 9,7 2,1 4 2 29 16 ENE 0,0
25.09.2018 20:00:00 10,6 1,7 4 2 21 11 ENE -
25.09.2018 19:00:00 13,0 1,0 2 1 26 14 E 0,0
25.09.2018 18:00:00 14,9 -0,4 4 2 29 16 ENE 0,0
25.09.2018 17:00:00 16,9 -1,3 5 3 29 16 ENE 0,0
25.09.2018 16:00:00 17,1 -1,6 5 3 29 16 ENE 0,0
25.09.2018 15:00:00 16,8 -1,4 8 4 28 15 ENE 0,0
25.09.2018 14:00:00 16,3 0,0 5 3 35 19 NE 0,0
25.09.2018 13:00:00 15,2 1,0 4 2 - - NE -
25.09.2018 12:00:00 14,0 1,6 5 3 35 19 E 0,0
25.09.2018 11:00:00 12,3 2,4 8 4 34 18 E 0,0
25.09.2018 10:00:00 10,7 2,3 8 4 41 22 ENE 0,0
25.09.2018 09:00:00 8,5 2,3 8 4 35 19 E 0,0
25.09.2018 08:00:00 6,4 2,1 4 2 35 19 ENE -
25.09.2018 07:00:00 6,7 2,0 5 3 34 18 E 0,0
25.09.2018 06:00:00 6,6 2,3 5 3 29 16 E 0,0
25.09.2018 05:00:00 6,4 2,3 8 4 34 18 ENE 0,0
25.09.2018 04:00:00 6,6 2,7 8 4 29 16 ENE 0,0
25.09.2018 03:00:00 6,8 2,7 8 4 35 19 ENE 0,0
25.09.2018 02:00:00 7,3 3,0 8 4 39 21 ENE -
25.09.2018 01:00:00 7,4 2,9 11 6 41 22 ENE 0,0
25.09.2018 00:00:00 7,6 3,1 8 4 35 19 ENE 0,0
24.09.2018 23:00:00 7,5 2,6 5 3 37 20 ENE 0,0
24.09.2018 22:00:00 7,8 2,0 5 3 29 16 NE 0,0
24.09.2018 21:00:00 8,3 2,3 5 3 29 16 ENE 0,0
24.09.2018 20:00:00 9,1 2,2 8 4 34 18 NE -
24.09.2018 19:00:00 10,8 2,4 8 4 35 19 NE 0,0
24.09.2018 18:00:00 12,2 2,3 9 5 39 21 NNE 0,0
24.09.2018 17:00:00 14,1 2,9 8 4 35 19 NE 0,0
24.09.2018 16:00:00 14,4 3,5 8 4 44 24 NE 0,0
24.09.2018 15:00:00 14,4 4,1 8 4 37 20 NE 0,0
24.09.2018 14:00:00 13,6 5,2 8 4 29 16 NE -
24.09.2018 13:00:00 12,6 5,0 5 3 35 19 ENE 0,0
24.09.2018 12:00:00 11,1 5,8 4 2 42 23 NE 0,0
24.09.2018 11:00:00 8,8 5,4 8 4 34 18 NE 0,0
24.09.2018 10:00:00 7,3 5,4 4 2 26 14 NE 0,0
24.09.2018 09:00:00 6,7 5,6 5 3 29 16 ENE 0,0
24.09.2018 08:00:00 5,6 5,0 8 4 35 19 NE -
24.09.2018 07:00:00 5,2 4,5 8 4 28 15 ENE 0,0
24.09.2018 06:00:00 5,3 4,7 5 3 26 14 ENE 0,0
24.09.2018 05:00:00 6,2 5,5 8 4 28 15 NE 0,0
24.09.2018 04:00:00 6,2 5,6 5 3 26 14 NE 0,0
24.09.2018 03:00:00 6,4 5,7 5 3 28 15 NE 0,0
24.09.2018 02:00:00 7,1 6,2 9 5 34 18 NE -
24.09.2018 01:00:00 8,0 7,1 8 4 41 22 NE 0,0
24.09.2018 00:00:00 8,6 7,7 8 4 35 19 NNE 0,0
23.09.2018 23:00:00 10,2 9,6 8 4 37 20 NW 0,0
23.09.2018 22:00:00 10,6 10,0 8 4 39 21 NNE 0,2
23.09.2018 21:00:00 12,1 11,6 11 6 54 29 NNW 0,2
23.09.2018 20:00:00 13,5 12,7 13 7 52 28 NW -
23.09.2018 19:00:00 17,4 16,8 5 3 37 20 N 0,8
23.09.2018 18:00:00 18,9 15,9 8 4 42 23 N 0,0
23.09.2018 17:00:00 20,1 15,7 8 4 42 23 NNW 0,0
23.09.2018 16:00:00 20,0 15,6 8 4 41 22 N 0,0
23.09.2018 15:00:00 19,9 15,9 5 3 37 20 NNW 0,0
23.09.2018 14:00:00 18,9 15,8 8 4 41 22 SW -
23.09.2018 13:00:00 17,4 15,6 11 6 35 19 SW 0,0
23.09.2018 12:00:00 16,0 15,2 9 5 31 17 WSW 0,4
23.09.2018 11:00:00 15,2 14,2 8 4 37 20 SW 0,2
23.09.2018 10:00:00 14,8 14,0 11 6 35 19 SW 0,2
23.09.2018 09:00:00 14,5 13,0 9 5 41 22 WSW 0,0
23.09.2018 08:00:00 15,1 12,4 9 5 35 19 SW -
23.09.2018 07:00:00 15,3 12,1 8 4 34 18 WSW 0,0
23.09.2018 06:00:00 15,4 11,4 5 3 29 16 W 0,0
23.09.2018 05:00:00 16,0 10,5 5 3 39 21 W 0,0
23.09.2018 04:00:00 16,4 10,5 8 4 34 18 W 0,0
23.09.2018 03:00:00 16,3 10,2 9 5 41 22 WSW 0,0
23.09.2018 02:00:00 16,4 10,0 8 4 42 23 W -
23.09.2018 01:00:00 16,2 9,4 9 5 42 23 WSW 0,0
23.09.2018 00:00:00 15,9 8,9 5 3 31 17 W 0,0
22.09.2018 23:00:00 16,4 7,6 5 3 46 25 NW 0,0
22.09.2018 22:00:00 16,7 5,6 13 7 39 21 SW 0,0
22.09.2018 21:00:00 16,1 4,8 13 7 37 20 SW 0,0
22.09.2018 20:00:00 15,4 5,3 13 7 28 15 SSW -
22.09.2018 19:00:00 15,6 5,2 9 5 22 12 SSW 0,0
22.09.2018 18:00:00 16,2 5,2 5 3 21 11 SW 0,0
22.09.2018 17:00:00 16,0 3,7 8 4 24 13 SSW 0,0
22.09.2018 16:00:00 16,5 4,5 4 2 26 14 SSW 0,0
22.09.2018 15:00:00 17,5 5,4 9 5 26 14 SSW 0,0
22.09.2018 14:00:00 15,8 6,8 9 5 26 14 SSW -
22.09.2018 13:00:00 14,8 6,1 8 4 18 10 SW 0,0
22.09.2018 12:00:00 14,0 8,2 4 2 13 7 W 0,0
22.09.2018 11:00:00 13,3 7,7 2 1 13 7 SW 0,0
22.09.2018 10:00:00 11,3 6,8 4 2 13 7 SE 0,0
22.09.2018 09:00:00 10,2 6,3 4 2 13 7 ESE 0,0
22.09.2018 08:00:00 7,4 5,2 4 2 16 9 SE -
22.09.2018 07:00:00 7,2 5,7 4 2 11 6 SE 0,0
22.09.2018 06:00:00 7,6 6,1 4 2 8 4 ESE 0,0
22.09.2018 05:00:00 7,6 6,5 4 2 11 6 E 0,0
22.09.2018 04:00:00 7,8 7,0 4 2 8 4 ESE 0,0
22.09.2018 03:00:00 7,9 6,7 2 1 8 4 NNE 0,0
22.09.2018 02:00:00 7,6 6,8 0 0 8 4 N -
22.09.2018 01:00:00 7,9 7,1 0 0 13 7 N 0,0
22.09.2018 00:00:00 8,0 7,4 0 0 8 4 N 0,0
21.09.2018 23:00:00 8,4 7,8 0 0 5 3 N 0,0
21.09.2018 22:00:00 8,9 8,3 0 0 8 4 N 0,0
21.09.2018 21:00:00 9,5 8,9 0 0 8 4 N 0,0
21.09.2018 20:00:00 10,5 9,9 2 1 9 5 E -
21.09.2018 19:00:00 11,5 10,7 2 1 13 7 N 0,0
21.09.2018 18:00:00 12,1 11,5 4 2 18 10 N 0,0
21.09.2018 17:00:00 11,8 11,2 2 1 16 9 NNW 0,0
21.09.2018 16:00:00 11,2 10,4 2 1 15 8 NNW 1,0
21.09.2018 15:00:00 11,9 11,1 4 2 21 11 NNE 5,0
21.09.2018 14:00:00 15,3 14,7 5 3 44 24 N -
21.09.2018 13:00:00 17,0 13,3 8 4 44 24 W 0,0
21.09.2018 12:00:00 18,1 12,5 5 3 41 22 W 0,0
21.09.2018 11:00:00 17,4 12,5 8 4 42 23 W 0,0
21.09.2018 10:00:00 16,9 12,2 9 5 34 18 SW 0,0
21.09.2018 09:00:00 16,3 12,3 5 3 35 19 W 0,0
21.09.2018 08:00:00 16,5 12,1 4 2 29 16 N -
21.09.2018 07:00:00 16,1 12,3 4 2 24 13 WNW 0,0
21.09.2018 06:00:00 16,8 11,7 4 2 34 18 W 0,0
21.09.2018 05:00:00 19,3 10,6 9 5 39 21 SW 0,0
21.09.2018 04:00:00 20,2 10,9 15 8 41 22 SW 0,0
21.09.2018 03:00:00 20,4 12,1 16 9 41 22 SW 0,0
21.09.2018 02:00:00 21,4 11,7 16 9 37 20 SSW -
21.09.2018 01:00:00 21,9 11,6 9 5 24 13 SSW 0,0
21.09.2018 00:00:00 21,6 10,4 5 3 24 13 S 0,0
20.09.2018 23:00:00 20,3 11,0 4 2 18 10 S 0,0
20.09.2018 22:00:00 19,5 11,8 5 3 16 9 SSE 0,0
20.09.2018 21:00:00 19,1 11,9 4 2 15 8 SE 0,0
20.09.2018 20:00:00 20,9 11,5 4 2 13 7 SSE -
20.09.2018 19:00:00 23,3 11,0 5 3 18 10 SW 0,0
20.09.2018 18:00:00 25,2 9,5 4 2 26 14 W 0,0
20.09.2018 17:00:00 26,7 10,0 4 2 28 15 W 0,0
20.09.2018 16:00:00 26,9 9,7 4 2 28 15 WSW 0,0
20.09.2018 15:00:00 26,1 12,5 5 3 22 12 WSW 0,0
20.09.2018 14:00:00 25,1 13,0 5 3 22 12 W -
20.09.2018 13:00:00 24,7 12,3 4 2 16 9 NNW 0,0
20.09.2018 12:00:00 22,3 12,3 4 2 13 7 W 0,0
20.09.2018 11:00:00 21,5 11,8 2 1 11 6 SW 0,0
20.09.2018 10:00:00 20,2 12,4 2 1 8 4 S 0,0
20.09.2018 09:00:00 17,3 12,4 0 0 9 5 N 0,0
20.09.2018 08:00:00 14,2 11,9 0 0 4 2 N -
20.09.2018 07:00:00 13,6 12,0 0 0 11 6 N 0,0
20.09.2018 06:00:00 15,1 11,9 0 0 5 3 N 0,0
20.09.2018 05:00:00 15,4 12,0 2 1 5 3 WSW 0,0

tt = Température de l'air
td = dewpoint
ff = Vitesse du vent
fx = gusts
dd = Direction du vent
rr = Quantités de précipitations

stations d'obs. à proximité